createdAt,value
2023-04-14T00:03:30.134Z,8.60
2023-04-14T00:10:32.237Z,8.15
2023-04-14T00:17:33.938Z,10.05
2023-04-14T00:24:43.244Z,10.60
2023-04-14T00:31:44.900Z,9.93
2023-04-14T00:38:46.500Z,13.27
2023-04-14T00:45:48.666Z,10.13
2023-04-14T00:52:50.276Z,9.05
2023-04-14T00:59:52.405Z,7.80
2023-04-14T01:06:54.414Z,10.80
2023-04-14T01:14:19.142Z,10.98
2023-04-14T01:21:26.456Z,10.73
2023-04-14T01:29:04.910Z,11.85
2023-04-14T01:36:09.061Z,14.75
2023-04-14T01:43:11.342Z,9.10
2023-04-14T01:50:12.987Z,11.27
2023-04-14T01:57:14.599Z,10.32
2023-04-14T02:04:17.076Z,8.63
2023-04-14T02:11:19.221Z,11.70
2023-04-14T02:18:22.445Z,8.48
2023-04-14T02:25:25.459Z,7.90
2023-04-14T02:32:29.047Z,10.15
2023-04-14T02:39:32.067Z,9.90
2023-04-14T02:46:43.718Z,8.45
2023-04-14T02:53:45.532Z,7.65
2023-04-14T03:01:01.323Z,9.13
2023-04-14T03:08:03.270Z,10.02
2023-04-14T03:15:07.114Z,7.40
2023-04-14T03:22:09.127Z,10.25
2023-04-14T03:29:10.739Z,11.07
2023-04-14T03:36:12.764Z,7.95
2023-04-14T03:43:19.807Z,10.07
2023-04-14T03:50:23.050Z,8.75
2023-04-14T03:57:26.626Z,9.45
2023-04-14T04:04:29.180Z,11.02
2023-04-14T04:11:32.052Z,8.52
2023-04-14T04:18:33.890Z,6.60
2023-04-14T04:25:37.405Z,10.68
2023-04-14T04:32:50.423Z,10.45
2023-04-14T04:39:52.115Z,8.35
2023-04-14T04:46:55.812Z,7.20
2023-04-14T04:54:02.391Z,7.53
2023-04-14T05:01:10.455Z,9.25
2023-04-14T05:08:14.964Z,12.07
2023-04-14T05:15:16.795Z,6.18
2023-04-14T05:22:18.323Z,7.45
2023-04-14T05:29:20.058Z,8.10
2023-04-14T05:36:21.629Z,10.40
2023-04-14T05:43:23.159Z,8.90
2023-04-14T05:50:24.681Z,8.40
2023-04-14T05:57:26.892Z,8.10
2023-04-14T06:04:28.533Z,11.40
2023-04-14T06:11:30.540Z,9.15
2023-04-14T06:18:32.111Z,11.30
2023-04-14T06:25:36.712Z,11.25
2023-04-14T06:32:38.246Z,9.93
2023-04-14T06:39:39.827Z,8.07
2023-04-14T06:46:41.387Z,10.88
2023-04-14T06:53:42.948Z,10.75
2023-04-14T07:00:44.617Z,10.25
2023-04-14T07:07:46.345Z,12.00
2023-04-14T07:14:52.050Z,12.15
2023-04-14T07:21:53.985Z,12.50
2023-04-14T07:28:59.122Z,14.27
2023-04-14T07:36:03.493Z,13.40
2023-04-14T07:43:05.725Z,11.57
2023-04-14T07:50:07.684Z,10.95
2023-04-14T07:57:10.725Z,10.35
2023-04-14T08:04:12.528Z,11.88
2023-04-14T08:11:14.200Z,11.10
2023-04-14T08:18:15.786Z,9.35
2023-04-14T08:25:17.359Z,9.40
2023-04-14T08:32:18.917Z,9.50
2023-04-14T08:39:20.453Z,9.07
2023-04-14T08:46:22.053Z,9.65
2023-04-14T08:53:23.965Z,8.05
2023-04-14T09:00:25.481Z,7.55
2023-04-14T09:07:28.275Z,9.25
2023-04-14T09:14:31.677Z,8.05
2023-04-14T09:21:51.673Z,10.38
2023-04-14T09:28:54.663Z,8.68
2023-04-14T09:35:56.193Z,11.13
2023-04-14T09:42:57.900Z,8.55
2023-04-14T09:50:03.939Z,9.60
2023-04-14T09:57:06.185Z,12.68
2023-04-14T10:04:23.312Z,13.82
2023-04-14T10:11:27.421Z,9.43
2023-04-14T10:18:28.978Z,11.63
2023-04-14T10:25:31.030Z,11.30
2023-04-14T10:32:34.266Z,9.73
2023-04-14T10:39:36.614Z,11.32
2023-04-14T10:46:44.428Z,10.93
2023-04-14T10:53:50.189Z,12.13
2023-04-14T11:00:51.990Z,11.75
2023-04-14T11:07:56.042Z,8.45
2023-04-14T11:15:03.768Z,9.77
2023-04-14T11:22:05.336Z,11.63
2023-04-14T11:29:10.064Z,10.27
2023-04-14T11:36:13.030Z,10.07
2023-04-14T11:43:14.671Z,9.60
2023-04-14T11:50:16.896Z,9.45
2023-04-14T11:57:18.479Z,12.27
2023-04-14T12:04:20.287Z,10.95
2023-04-14T12:11:22.676Z,10.45
2023-04-14T12:18:24.222Z,8.30
2023-04-14T12:25:25.833Z,9.38
2023-04-14T12:32:29.777Z,9.05
2023-04-14T12:39:31.420Z,12.77
2023-04-14T12:46:33.107Z,9.70
2023-04-14T12:53:35.760Z,12.65
2023-04-14T13:00:37.358Z,8.45
2023-04-14T13:07:38.971Z,9.38
2023-04-14T13:14:40.530Z,10.10
2023-04-14T13:21:42.058Z,11.13
2023-04-14T13:28:43.675Z,11.18
2023-04-14T13:35:45.295Z,8.88
2023-04-14T13:42:46.816Z,8.23
2023-04-14T13:49:48.458Z,9.07
2023-04-14T13:56:50.072Z,7.55
2023-04-14T14:03:51.836Z,8.75
2023-04-14T14:10:53.455Z,9.85
2023-04-14T14:17:55.089Z,9.07
2023-04-14T14:25:10.852Z,11.27
2023-04-14T14:39:18.632Z,9.68
2023-04-14T14:46:20.279Z,9.25
2023-04-14T14:53:21.975Z,8.50
2023-04-14T15:00:23.607Z,6.70
2023-04-14T15:07:25.143Z,6.60
2023-04-14T15:14:27.214Z,8.20
2023-04-14T15:21:28.871Z,7.00
2023-04-14T15:28:30.562Z,7.13
2023-04-14T15:35:38.859Z,7.82
2023-04-14T15:42:41.559Z,7.57
2023-04-14T15:49:44.576Z,8.20
2023-04-14T15:56:52.468Z,7.70
2023-04-14T16:03:54.059Z,8.20
2023-04-14T16:10:55.666Z,7.93
2023-04-14T16:17:57.222Z,7.45
2023-04-14T16:24:58.766Z,9.57
2023-04-14T16:32:00.343Z,7.43
2023-04-14T16:39:02.050Z,7.90
2023-04-14T16:46:04.133Z,6.63
2023-04-14T16:53:05.786Z,8.25
2023-04-14T17:00:08.033Z,7.82
2023-04-14T17:07:09.608Z,12.50
2023-04-14T17:14:11.343Z,7.05
2023-04-14T17:21:12.935Z,12.65
2023-04-14T17:28:15.509Z,7.65
2023-04-14T17:35:17.064Z,8.68
2023-04-14T17:42:18.674Z,7.75
2023-04-14T17:49:21.151Z,7.93
2023-04-14T17:56:22.679Z,9.00
2023-04-14T18:03:24.450Z,8.38
2023-04-14T18:10:26.334Z,9.50
2023-04-14T18:17:28.938Z,8.85
2023-04-14T18:31:35.309Z,10.45
2023-04-14T18:38:37.340Z,9.10
2023-04-14T18:45:38.939Z,10.80
2023-04-14T18:52:40.651Z,9.45
2023-04-14T18:59:42.187Z,9.68
2023-04-14T19:06:43.717Z,9.32
2023-04-14T19:13:45.260Z,10.07
2023-04-14T19:20:47.640Z,11.15
2023-04-14T19:27:49.313Z,10.10
2023-04-14T19:34:51.429Z,11.27
2023-04-14T19:41:53.057Z,9.43
2023-04-14T19:48:54.942Z,10.95
2023-04-14T19:55:57.902Z,10.98
2023-04-14T20:02:59.592Z,10.60
2023-04-14T20:10:01.641Z,11.45
2023-04-14T20:17:03.344Z,11.85
2023-04-14T20:24:05.810Z,12.32
2023-04-14T20:31:08.743Z,12.65
2023-04-14T20:38:12.717Z,12.98
2023-04-14T20:45:16.257Z,12.10
2023-04-14T20:52:17.841Z,12.88
2023-04-14T20:59:19.420Z,14.45
2023-04-14T21:06:21.011Z,16.42
2023-04-14T21:15:28.430Z,29.27
2023-04-14T21:20:44.171Z,17.85
2023-04-14T21:27:45.700Z,16.55
2023-04-14T21:34:47.286Z,14.70
2023-04-14T21:41:49.205Z,16.20
2023-04-14T21:48:50.820Z,17.50
2023-04-14T21:56:08.401Z,14.57
2023-04-14T22:03:12.575Z,15.03
2023-04-14T22:10:14.674Z,16.13
2023-04-14T22:17:16.377Z,18.33
2023-04-14T22:24:18.523Z,16.10
2023-04-14T22:31:20.222Z,16.33
2023-04-14T22:38:21.812Z,15.35
2023-04-14T22:45:23.335Z,17.85
2023-04-14T22:52:25.774Z,13.18
2023-04-14T22:59:27.303Z,21.88
2023-04-14T23:06:28.880Z,15.60
2023-04-14T23:13:30.640Z,22.80
2023-04-14T23:20:32.279Z,14.05
2023-04-14T23:27:33.801Z,18.77
2023-04-14T23:34:36.108Z,18.40
2023-04-14T23:41:37.638Z,19.90
2023-04-14T23:48:39.172Z,24.35
2023-04-14T23:55:40.908Z,24.83
